Time;durP1;ratioP1;P1;durP2;ratioP2;P2;SDS_P1;SDS_P2;PMS_P1;PMS_P2;Temp;Humidity;BMP_temperature;BMP_pressure;BME280_temperature;BME280_humidity;BME280_pressure;Samples;Min_cycle;Max_cycle;Signal;HPM_P1;HPM_P2
2022/02/13 00:01:32;;;;;;;6.53;3.70;;;;;;;;;;5025571;28;20466;-50
2022/02/13 00:03:58;;;;;;;6.35;3.42;;;;;;;;;;5024979;28;20623;-50
2022/02/13 00:06:24;;;;;;;9.57;4.50;;;;;;;;;;5024708;28;20091;-49
2022/02/13 00:08:50;;;;;;;5.75;3.47;;;;;;;;;;5025114;28;20064;-49
2022/02/13 00:11:17;;;;;;;7.93;3.90;;;;;;;;;;5038427;28;20039;-51
2022/02/13 00:13:43;;;;;;;6.63;3.47;;;;;;;;;;5044001;28;20090;-48
2022/02/13 00:16:09;;;;;;;8.25;4.07;;;;;;;;;;5045595;28;20454;-50
2022/02/13 00:18:35;;;;;;;10.02;4.82;;;;;;;;;;5044932;28;20033;-48
2022/02/13 00:21:01;;;;;;;11.35;5.45;;;;;;;;;;5044934;28;20066;-51
2022/02/13 00:23:27;;;;;;;14.48;5.38;;;;;;;;;;5041175;28;20246;-50
2022/02/13 00:25:53;;;;;;;11.63;4.90;;;;;;;;;;5044992;28;20036;-52
2022/02/13 00:28:20;;;;;;;8.55;4.55;;;;;;;;;;5044565;28;20029;-52
2022/02/13 00:30:46;;;;;;;13.02;5.68;;;;;;;;;;5032623;28;20041;-50
2022/02/13 00:33:16;;;;;;;11.90;5.75;;;;;;;;;;5025065;28;20017;-49
2022/02/13 00:35:43;;;;;;;11.75;5.90;;;;;;;;;;5025030;28;20021;-50
2022/02/13 00:38:09;;;;;;;11.93;6.53;;;;;;;;;;5025372;28;20022;-48
2022/02/13 00:40:36;;;;;;;12.43;6.57;;;;;;;;;;5024929;28;20106;-48
2022/02/13 00:43:02;;;;;;;14.10;7.15;;;;;;;;;;5032481;28;20408;-49
2022/02/13 00:45:29;;;;;;;14.48;6.90;;;;;;;;;;5038971;28;20033;-51
2022/02/13 00:47:55;;;;;;;13.73;6.07;;;;;;;;;;5024581;28;20412;-52
2022/02/13 00:50:21;;;;;;;12.27;6.03;;;;;;;;;;5024490;28;20033;-48
2022/02/13 00:52:47;;;;;;;10.90;6.60;;;;;;;;;;5024849;28;20500;-51
2022/02/13 00:55:13;;;;;;;10.10;5.30;;;;;;;;;;5024556;28;20108;-50
2022/02/13 00:57:39;;;;;;;11.18;6.13;;;;;;;;;;5039894;28;20070;-51
2022/02/13 01:00:05;;;;;;;12.93;6.68;;;;;;;;;;5044171;28;20037;-48
2022/02/13 01:02:31;;;;;;;11.25;5.88;;;;;;;;;;5044334;28;20078;-51
2022/02/13 01:04:58;;;;;;;9.75;5.80;;;;;;;;;;5044398;28;20108;-51
2022/02/13 01:07:24;;;;;;;12.88;5.70;;;;;;;;;;5040752;28;20044;-48
2022/02/13 01:09:51;;;;;;;10.38;5.55;;;;;;;;;;5044266;28;20036;-48
2022/02/13 01:12:17;;;;;;;11.65;5.85;;;;;;;;;;5044127;28;20074;-48
2022/02/13 01:14:43;;;;;;;13.23;5.93;;;;;;;;;;5044907;28;20079;-51
2022/02/13 01:17:09;;;;;;;13.48;6.90;;;;;;;;;;5043085;28;20083;-48
2022/02/13 01:19:36;;;;;;;15.32;7.28;;;;;;;;;;5036895;28;20037;-48
2022/02/13 01:22:04;;;;;;;13.23;6.30;;;;;;;;;;5028372;28;20033;-48
2022/02/13 01:24:31;;;;;;;12.88;6.70;;;;;;;;;;5028435;28;20056;-49
2022/02/13 01:26:57;;;;;;;13.70;6.30;;;;;;;;;;5038284;28;20454;-50
2022/02/13 01:29:23;;;;;;;11.43;7.00;;;;;;;;;;5048109;28;20037;-48
2022/02/13 01:31:49;;;;;;;13.68;6.07;;;;;;;;;;5047954;28;20017;-51
2022/02/13 01:34:18;;;;;;;12.15;6.38;;;;;;;;;;5045968;28;20028;-50
2022/02/13 01:36:45;;;;;;;12.85;6.30;;;;;;;;;;5048107;28;20196;-49
2022/02/13 01:39:11;;;;;;;12.18;6.20;;;;;;;;;;5048207;28;20103;-48
2022/02/13 01:41:38;;;;;;;12.88;6.15;;;;;;;;;;5047314;28;20025;-48
2022/02/13 01:44:04;;;;;;;13.07;5.78;;;;;;;;;;5046977;28;20678;-49
2022/02/13 01:46:31;;;;;;;12.23;5.93;;;;;;;;;;5047661;28;20653;-50
2022/02/13 01:48:57;;;;;;;10.20;5.50;;;;;;;;;;5047737;28;20035;-48
2022/02/13 01:51:24;;;;;;;10.93;5.80;;;;;;;;;;5047790;28;20017;-50
2022/02/13 01:53:50;;;;;;;12.50;5.80;;;;;;;;;;5046682;28;20029;-49
2022/02/13 01:56:17;;;;;;;12.32;5.97;;;;;;;;;;5047635;28;20107;-48
2022/02/13 01:58:44;;;;;;;11.38;5.72;;;;;;;;;;5047899;28;20158;-48
2022/02/13 02:01:11;;;;;;;11.68;5.65;;;;;;;;;;5029514;28;20026;-50
2022/02/13 02:03:38;;;;;;;12.32;6.05;;;;;;;;;;5028592;28;20025;-51
2022/02/13 02:06:05;;;;;;;12.57;6.10;;;;;;;;;;5027814;28;20025;-48
2022/02/13 02:08:31;;;;;;;11.98;6.10;;;;;;;;;;5027177;28;20358;-51
2022/02/13 02:10:57;;;;;;;11.93;5.45;;;;;;;;;;5027689;28;20076;-47
2022/02/13 02:13:23;;;;;;;17.17;7.22;;;;;;;;;;5027494;28;20409;-50
2022/02/13 02:15:49;;;;;;;11.82;5.43;;;;;;;;;;5027287;28;20022;-47
2022/02/13 02:18:15;;;;;;;13.43;5.80;;;;;;;;;;5027085;28;20467;-48
2022/02/13 02:20:41;;;;;;;10.55;6.07;;;;;;;;;;5040141;28;20035;-51
2022/02/13 02:23:07;;;;;;;10.23;5.43;;;;;;;;;;5047103;28;20032;-52
2022/02/13 02:25:33;;;;;;;13.20;6.13;;;;;;;;;;5045993;28;20415;-48
2022/02/13 02:27:59;;;;;;;9.75;5.28;;;;;;;;;;5029758;28;20562;-51
2022/02/13 02:30:25;;;;;;;13.38;5.47;;;;;;;;;;5033269;28;20029;-49
2022/02/13 02:32:51;;;;;;;11.93;6.70;;;;;;;;;;5046884;28;20024;-49
2022/02/13 02:35:17;;;;;;;12.23;6.55;;;;;;;;;;5046906;28;20381;-51
2022/02/13 02:37:43;;;;;;;11.48;5.82;;;;;;;;;;5047249;28;20408;-50
2022/02/13 02:40:10;;;;;;;14.15;5.97;;;;;;;;;;5046330;28;20275;-50
2022/02/13 02:42:36;;;;;;;13.38;6.38;;;;;;;;;;5045858;28;20416;-50
2022/02/13 02:45:03;;;;;;;12.20;5.63;;;;;;;;;;5047271;28;20492;-50
2022/02/13 02:47:29;;;;;;;11.27;6.20;;;;;;;;;;5046361;28;20029;-48
2022/02/13 02:49:55;;;;;;;11.88;5.93;;;;;;;;;;5045655;28;20057;-51
2022/02/13 02:52:21;;;;;;;14.73;7.25;;;;;;;;;;5046714;28;20083;-50
2022/02/13 02:54:48;;;;;;;13.48;6.45;;;;;;;;;;5046783;28;20029;-48
2022/02/13 02:57:14;;;;;;;12.05;6.55;;;;;;;;;;5046257;28;20032;-49
2022/02/13 02:59:40;;;;;;;12.27;6.10;;;;;;;;;;5045913;28;20098;-49
2022/02/13 03:02:06;;;;;;;15.43;6.97;;;;;;;;;;5041587;28;20276;-48
2022/02/13 03:04:32;;;;;;;13.68;6.72;;;;;;;;;;5046595;28;20029;-50
2022/02/13 03:06:58;;;;;;;14.25;6.60;;;;;;;;;;5046304;28;20033;-49
2022/02/13 03:09:25;;;;;;;13.75;6.43;;;;;;;;;;5046210;28;20202;-51
2022/02/13 03:11:51;;;;;;;13.25;6.53;;;;;;;;;;5045272;28;20412;-50
2022/02/13 03:14:17;;;;;;;17.65;6.50;;;;;;;;;;5045997;28;20025;-52
2022/02/13 03:16:43;;;;;;;15.05;7.22;;;;;;;;;;5044917;28;20037;-51
2022/02/13 03:19:10;;;;;;;12.70;6.28;;;;;;;;;;5046905;28;20025;-48
2022/02/13 03:21:36;;;;;;;11.13;5.80;;;;;;;;;;5045675;28;20048;-49
2022/02/13 03:24:07;;;;;;;12.45;5.93;;;;;;;;;;5046388;28;20052;-48
2022/02/13 03:26:33;;;;;;;11.65;5.70;;;;;;;;;;5045907;28;20047;-50
2022/02/13 03:28:59;;;;;;;12.75;6.22;;;;;;;;;;5037491;28;20087;-48
2022/02/13 03:31:25;;;;;;;12.90;6.63;;;;;;;;;;5038969;28;20072;-50
2022/02/13 03:33:51;;;;;;;12.82;6.40;;;;;;;;;;5046128;28;20543;-50
2022/02/13 03:36:19;;;;;;;11.48;6.03;;;;;;;;;;5045790;28;20107;-49
2022/02/13 03:38:45;;;;;;;12.70;6.25;;;;;;;;;;5045647;28;20028;-51
2022/02/13 03:41:11;;;;;;;11.95;5.70;;;;;;;;;;5044319;28;20037;-49
2022/02/13 03:43:38;;;;;;;12.75;5.68;;;;;;;;;;5046380;28;20029;-48
2022/02/13 03:46:04;;;;;;;10.52;5.50;;;;;;;;;;5045508;28;20115;-50
2022/02/13 03:48:31;;;;;;;10.25;6.10;;;;;;;;;;5045256;28;20104;-51
2022/02/13 03:50:57;;;;;;;11.80;5.35;;;;;;;;;;5034368;28;20030;-50
2022/02/13 03:53:23;;;;;;;13.55;5.80;;;;;;;;;;5044173;28;20542;-51
2022/02/13 03:55:49;;;;;;;14.45;6.22;;;;;;;;;;5045488;28;20075;-51
2022/02/13 03:58:15;;;;;;;8.82;5.32;;;;;;;;;;5045014;28;20480;-48
2022/02/13 04:00:41;;;;;;;10.15;5.22;;;;;;;;;;5044015;28;20039;-50
2022/02/13 04:03:07;;;;;;;8.40;4.95;;;;;;;;;;5046264;28;20033;-50
2022/02/13 04:05:33;;;;;;;11.75;5.40;;;;;;;;;;5045467;28;20025;-51
2022/02/13 04:07:59;;;;;;;14.27;5.63;;;;;;;;;;5043524;28;20448;-49
2022/02/13 04:10:25;;;;;;;12.15;5.97;;;;;;;;;;5043723;28;20044;-54
2022/02/13 04:12:51;;;;;;;13.15;5.93;;;;;;;;;;5045174;28;20029;-49
2022/02/13 04:15:18;;;;;;;12.32;6.03;;;;;;;;;;5043570;28;20079;-53
2022/02/13 04:17:44;;;;;;;11.25;5.95;;;;;;;;;;5044990;28;20031;-49
2022/02/13 04:20:10;;;;;;;11.25;5.72;;;;;;;;;;5044329;28;20017;-50
2022/02/13 04:22:36;;;;;;;13.73;6.90;;;;;;;;;;5045543;28;20453;-52
2022/02/13 04:25:02;;;;;;;11.02;6.15;;;;;;;;;;5045152;28;20067;-50
2022/02/13 04:27:29;;;;;;;12.57;5.60;;;;;;;;;;5044808;28;20116;-50
2022/02/13 04:29:56;;;;;;;13.93;6.35;;;;;;;;;;5042970;28;20033;-49
2022/02/13 04:32:22;;;;;;;9.65;5.00;;;;;;;;;;5031654;28;20030;-53
2022/02/13 04:34:48;;;;;;;16.23;6.97;;;;;;;;;;5041002;28;20094;-50
2022/02/13 04:37:14;;;;;;;11.35;5.63;;;;;;;;;;5030091;28;20109;-51
2022/02/13 04:39:40;;;;;;;12.18;5.70;;;;;;;;;;5028541;28;20096;-53
2022/02/13 04:42:06;;;;;;;12.05;5.60;;;;;;;;;;5028319;28;20025;-52
2022/02/13 04:44:32;;;;;;;13.65;5.05;;;;;;;;;;5026295;28;20029;-50
2022/02/13 04:46:59;;;;;;;12.52;6.05;;;;;;;;;;5036679;28;20048;-51
2022/02/13 04:49:25;;;;;;;11.98;5.88;;;;;;;;;;5026143;28;20488;-49
2022/02/13 04:51:51;;;;;;;11.75;5.63;;;;;;;;;;5032797;28;20417;-52
2022/02/13 04:54:17;;;;;;;11.63;4.95;;;;;;;;;;5042703;28;20132;-52
2022/02/13 04:56:43;;;;;;;12.00;5.60;;;;;;;;;;5028775;28;20183;-50
2022/02/13 04:59:09;;;;;;;13.63;6.00;;;;;;;;;;5045997;28;20025;-52
2022/02/13 05:01:36;;;;;;;9.75;5.38;;;;;;;;;;5029557;28;20037;-52
2022/02/13 05:04:02;;;;;;;10.15;5.63;;;;;;;;;;5026123;28;20045;-50
2022/02/13 05:06:28;;;;;;;9.18;5.32;;;;;;;;;;5026016;28;20411;-49
2022/02/13 05:08:56;;;;;;;10.05;5.68;;;;;;;;;;5025871;28;20091;-51
2022/02/13 05:11:22;;;;;;;9.75;5.10;;;;;;;;;;5025573;28;20620;-52
2022/02/13 05:13:49;;;;;;;11.32;5.68;;;;;;;;;;5029449;28;20025;-51
2022/02/13 05:16:15;;;;;;;10.45;5.60;;;;;;;;;;5036875;28;20041;-52
2022/02/13 05:18:41;;;;;;;11.98;6.28;;;;;;;;;;5026279;28;20032;-53
2022/02/13 05:21:08;;;;;;;11.90;5.65;;;;;;;;;;5033752;28;20095;-49
2022/02/13 05:23:34;;;;;;;10.02;5.20;;;;;;;;;;5044690;28;20309;-51
2022/02/13 05:26:01;;;;;;;9.52;6.03;;;;;;;;;;5045722;28;20421;-50
2022/02/13 05:28:28;;;;;;;11.00;5.78;;;;;;;;;;5043972;28;20029;-51
2022/02/13 05:30:54;;;;;;;10.43;6.03;;;;;;;;;;5044005;28;20032;-50
2022/02/13 05:33:20;;;;;;;11.68;5.93;;;;;;;;;;5044145;28;20455;-47
2022/02/13 05:35:46;;;;;;;11.68;5.85;;;;;;;;;;5044164;28;20063;-49
2022/02/13 05:38:12;;;;;;;10.25;5.53;;;;;;;;;;5043953;28;20025;-50
2022/02/13 05:40:38;;;;;;;11.43;5.40;;;;;;;;;;5045001;28;20032;-48
2022/02/13 05:43:04;;;;;;;9.15;5.07;;;;;;;;;;5044238;28;20512;-51
2022/02/13 05:45:30;;;;;;;9.60;5.10;;;;;;;;;;5042312;28;20025;-52
2022/02/13 05:47:56;;;;;;;11.68;5.10;;;;;;;;;;5034061;28;20033;-51
2022/02/13 05:50:22;;;;;;;9.70;5.20;;;;;;;;;;5045174;28;20047;-51
2022/02/13 05:52:48;;;;;;;8.77;4.82;;;;;;;;;;5030164;28;20484;-52
2022/02/13 05:55:14;;;;;;;10.13;5.30;;;;;;;;;;5025521;28;20029;-50
2022/02/13 05:57:41;;;;;;;11.30;5.10;;;;;;;;;;5024473;28;20026;-49
2022/02/13 06:00:08;;;;;;;9.88;4.90;;;;;;;;;;5025798;28;20052;-51
2022/02/13 06:02:34;;;;;;;10.25;5.25;;;;;;;;;;5025591;28;20099;-50
2022/02/13 06:05:00;;;;;;;12.23;4.97;;;;;;;;;;5054200;28;20618;-51
2022/02/13 06:07:26;;;;;;;10.45;5.25;;;;;;;;;;5068578;28;20064;-53
2022/02/13 06:09:52;;;;;;;10.25;4.90;;;;;;;;;;5069046;28;20075;-48
2022/02/13 06:12:18;;;;;;;8.50;4.50;;;;;;;;;;5068214;28;20568;-49
2022/02/13 06:14:44;;;;;;;12.52;5.03;;;;;;;;;;5032485;28;20079;-49
2022/02/13 06:17:10;;;;;;;12.88;4.95;;;;;;;;;;5029306;28;20104;-50
2022/02/13 06:19:36;;;;;;;10.20;4.05;;;;;;;;;;5039260;28;20051;-49
2022/02/13 06:22:02;;;;;;;10.05;5.00;;;;;;;;;;5052316;28;20040;-49
2022/02/13 06:24:28;;;;;;;9.13;4.85;;;;;;;;;;5057622;28;20044;-52
2022/02/13 06:26:54;;;;;;;7.30;4.20;;;;;;;;;;5048233;28;20035;-51
2022/02/13 06:29:20;;;;;;;5.97;3.78;;;;;;;;;;5048276;28;20380;-49
2022/02/13 06:31:46;;;;;;;8.45;3.35;;;;;;;;;;5048783;28;20504;-51
2022/02/13 06:34:12;;;;;;;6.72;3.83;;;;;;;;;;5048731;28;20063;-51
2022/02/13 06:36:38;;;;;;;6.10;3.67;;;;;;;;;;5048900;28;20036;-52
2022/02/13 06:39:05;;;;;;;8.98;3.47;;;;;;;;;;5048239;28;20095;-52
2022/02/13 06:41:31;;;;;;;4.63;2.70;;;;;;;;;;5034485;28;20096;-52
2022/02/13 06:43:57;;;;;;;6.22;2.92;;;;;;;;;;5030686;28;20065;-50
2022/02/13 06:46:23;;;;;;;7.03;3.60;;;;;;;;;;5039270;28;20655;-50
2022/02/13 06:48:49;;;;;;;5.03;3.28;;;;;;;;;;5043756;28;20586;-47
2022/02/13 06:51:15;;;;;;;5.68;2.80;;;;;;;;;;5032363;28;20037;-52
2022/02/13 06:53:41;;;;;;;3.25;2.40;;;;;;;;;;5049793;28;20033;-52
2022/02/13 06:56:07;;;;;;;5.03;3.45;;;;;;;;;;5048184;28;20027;-51
2022/02/13 06:58:33;;;;;;;5.30;3.08;;;;;;;;;;5047998;28;20068;-50
2022/02/13 07:01:00;;;;;;;5.70;3.13;;;;;;;;;;5048085;28;20032;-51
2022/02/13 07:03:26;;;;;;;7.18;3.10;;;;;;;;;;5047066;28;20025;-49
2022/02/13 07:05:52;;;;;;;5.97;3.00;;;;;;;;;;5039825;28;20148;-51
2022/02/13 07:08:19;;;;;;;5.90;2.92;;;;;;;;;;5026576;28;20560;-51
2022/02/13 07:10:45;;;;;;;4.82;2.88;;;;;;;;;;5028198;28;20029;-51
2022/02/13 07:13:11;;;;;;;4.22;2.70;;;;;;;;;;5032958;28;20127;-51
2022/02/13 07:15:38;;;;;;;7.18;3.38;;;;;;;;;;5027491;28;20421;-49
2022/02/13 07:18:04;;;;;;;5.50;2.92;;;;;;;;;;5043511;28;20034;-49
2022/02/13 07:20:30;;;;;;;6.47;3.40;;;;;;;;;;5044428;28;20048;-49
2022/02/13 07:22:56;;;;;;;5.30;3.28;;;;;;;;;;5026806;28;20499;-50
2022/02/13 07:25:23;;;;;;;6.20;3.63;;;;;;;;;;5027798;28;20427;-48
2022/02/13 07:27:49;;;;;;;9.25;4.25;;;;;;;;;;5039716;28;20060;-52
2022/02/13 07:30:15;;;;;;;8.48;4.10;;;;;;;;;;5041708;28;20133;-50
2022/02/13 07:32:45;;;;;;;7.35;3.70;;;;;;;;;;5029048;28;20037;-48
2022/02/13 07:35:11;;;;;;;9.85;4.63;;;;;;;;;;5028161;28;20017;-51
2022/02/13 07:37:37;;;;;;;8.80;4.22;;;;;;;;;;5028223;28;20043;-50
2022/02/13 07:40:04;;;;;;;6.75;4.32;;;;;;;;;;5044119;28;20090;-50
2022/02/13 07:42:30;;;;;;;6.70;4.05;;;;;;;;;;5047159;28;20037;-50
2022/02/13 07:44:56;;;;;;;8.05;4.72;;;;;;;;;;5047432;28;20411;-52
2022/02/13 07:47:22;;;;;;;9.65;4.65;;;;;;;;;;5047087;28;20029;-52
2022/02/13 07:49:48;;;;;;;6.32;4.00;;;;;;;;;;5047293;28;20025;-49
2022/02/13 07:52:14;;;;;;;10.35;4.45;;;;;;;;;;5047264;28;20036;-52
2022/02/13 07:54:40;;;;;;;8.50;3.95;;;;;;;;;;5032354;28;20021;-51
2022/02/13 07:57:06;;;;;;;8.85;4.57;;;;;;;;;;5027164;28;20476;-50
2022/02/13 07:59:32;;;;;;;9.90;4.82;;;;;;;;;;5026876;28;20040;-50
2022/02/13 08:02:00;;;;;;;8.52;4.10;;;;;;;;;;5028191;28;20029;-51
2022/02/13 08:04:26;;;;;;;10.98;5.90;;;;;;;;;;5026929;28;20029;-48
2022/02/13 08:06:52;;;;;;;9.73;5.13;;;;;;;;;;5043300;28;20039;-52
2022/02/13 08:09:18;;;;;;;8.20;5.00;;;;;;;;;;5046661;28;20484;-49
2022/02/13 08:11:44;;;;;;;8.68;4.88;;;;;;;;;;5045506;28;20029;-51
2022/02/13 08:14:10;;;;;;;11.27;5.35;;;;;;;;;;5047178;28;20385;-52
2022/02/13 08:16:37;;;;;;;11.48;5.30;;;;;;;;;;5033925;28;20033;-53
2022/02/13 08:19:03;;;;;;;9.32;4.55;;;;;;;;;;5026961;28;20053;-52
2022/02/13 08:21:29;;;;;;;9.98;4.63;;;;;;;;;;5026031;28;20532;-50
2022/02/13 08:23:55;;;;;;;13.23;4.82;;;;;;;;;;5025648;28;20040;-49
2022/02/13 08:26:22;;;;;;;11.10;5.50;;;;;;;;;;5025873;28;20025;-53
2022/02/13 08:28:48;;;;;;;11.98;5.18;;;;;;;;;;5029832;28;20086;-52
2022/02/13 08:31:14;;;;;;;11.38;4.95;;;;;;;;;;5046036;28;20104;-48
2022/02/13 08:33:40;;;;;;;10.70;5.18;;;;;;;;;;5047023;28;20028;-50
2022/02/13 08:36:06;;;;;;;11.77;5.38;;;;;;;;;;5047158;28;20021;-51
2022/02/13 08:38:32;;;;;;;11.60;5.20;;;;;;;;;;5045961;28;20029;-48
2022/02/13 08:41:00;;;;;;;11.80;5.82;;;;;;;;;;5046258;28;20036;-50
2022/02/13 08:43:26;;;;;;;18.35;7.72;;;;;;;;;;5045743;28;20025;-47
2022/02/13 08:45:54;;;;;;;12.65;6.10;;;;;;;;;;5046587;28;20024;-48
2022/02/13 08:48:21;;;;;;;8.60;4.95;;;;;;;;;;5045512;28;20032;-51
2022/02/13 08:50:47;;;;;;;13.32;6.72;;;;;;;;;;5045803;28;20040;-50
2022/02/13 08:53:14;;;;;;;11.95;6.22;;;;;;;;;;5046042;28;20443;-52
2022/02/13 08:55:42;;;;;;;12.50;5.97;;;;;;;;;;5046058;28;20025;-50
2022/02/13 08:58:09;;;;;;;12.88;6.95;;;;;;;;;;5037014;28;20032;-49
2022/02/13 09:00:35;;;;;;;9.38;5.72;;;;;;;;;;5038195;28;20056;-51
2022/02/13 09:03:02;;;;;;;12.15;5.47;;;;;;;;;;5034222;28;20025;-52
2022/02/13 09:05:28;;;;;;;11.20;5.13;;;;;;;;;;5030118;28;20567;-51
2022/02/13 09:07:54;;;;;;;10.30;4.93;;;;;;;;;;5045741;28;20029;-51
2022/02/13 09:10:20;;;;;;;9.88;4.90;;;;;;;;;;5045199;28;20029;-52
2022/02/13 09:12:46;;;;;;;8.82;4.88;;;;;;;;;;5045530;28;20028;-51
2022/02/13 09:15:14;;;;;;;10.27;5.25;;;;;;;;;;5045604;28;20029;-52
2022/02/13 09:17:40;;;;;;;10.57;4.63;;;;;;;;;;5047387;28;20032;-51
2022/02/13 09:20:07;;;;;;;10.70;4.90;;;;;;;;;;5045571;28;20416;-52
2022/02/13 09:22:33;;;;;;;9.95;4.93;;;;;;;;;;5044072;28;20033;-50
2022/02/13 09:25:00;;;;;;;9.18;4.85;;;;;;;;;;5026807;28;20045;-52
2022/02/13 09:27:26;;;;;;;9.05;4.15;;;;;;;;;;5048042;28;20460;-52
2022/02/13 09:29:54;;;;;;;10.85;4.45;;;;;;;;;;5045066;28;20051;-52
2022/02/13 09:32:20;;;;;;;10.40;4.43;;;;;;;;;;5056360;28;20025;-52
2022/02/13 09:34:47;;;;;;;8.52;4.15;;;;;;;;;;5065644;28;20032;-52
2022/02/13 09:37:13;;;;;;;8.75;3.60;;;;;;;;;;5057931;28;20086;-53
2022/02/13 09:39:40;;;;;;;7.43;4.40;;;;;;;;;;5039928;28;20021;-52
2022/02/13 09:42:06;;;;;;;10.65;4.00;;;;;;;;;;5030566;28;20022;-50
2022/02/13 09:44:33;;;;;;;7.55;3.80;;;;;;;;;;5029902;28;20419;-50
2022/02/13 09:46:59;;;;;;;8.93;3.80;;;;;;;;;;5036081;28;20116;-49
2022/02/13 09:49:25;;;;;;;8.07;3.83;;;;;;;;;;5034687;28;20037;-52
2022/02/13 09:51:51;;;;;;;7.13;3.55;;;;;;;;;;5038778;28;20025;-51
2022/02/13 09:54:17;;;;;;;8.50;3.47;;;;;;;;;;5035846;28;20404;-50
2022/02/13 09:56:46;;;;;;;9.40;4.00;;;;;;;;;;5048857;28;20112;-49
2022/02/13 09:59:12;;;;;;;8.85;4.03;;;;;;;;;;5038527;28;20111;-49
2022/02/13 10:01:39;;;;;;;7.78;3.42;;;;;;;;;;5040617;28;20112;-51
2022/02/13 10:04:06;;;;;;;8.48;4.00;;;;;;;;;;5028263;28;20107;-52
2022/02/13 10:06:35;;;;;;;8.48;4.10;;;;;;;;;;5028950;28;20107;-50
2022/02/13 10:09:02;;;;;;;7.93;3.55;;;;;;;;;;5029798;28;20080;-51
2022/02/13 10:11:32;;;;;;;8.07;3.83;;;;;;;;;;5048453;28;20048;-50
2022/02/13 10:13:58;;;;;;;10.48;3.90;;;;;;;;;;5048778;28;20067;-51
2022/02/13 10:16:30;;;;;;;7.60;3.88;;;;;;;;;;5048639;28;20052;-51
2022/02/13 10:19:00;;;;;;;8.63;3.97;;;;;;;;;;5048630;28;20080;-50
2022/02/13 10:21:32;;;;;;;7.63;3.78;;;;;;;;;;5047568;28;20079;-49
2022/02/13 10:24:17;;;;;;;8.15;3.72;;;;;;;;;;5047473;28;20087;-52
2022/02/13 10:26:44;;;;;;;7.00;3.38;;;;;;;;;;5047159;28;20025;-52
2022/02/13 10:29:11;;;;;;;7.72;3.80;;;;;;;;;;5047195;28;20029;-50
2022/02/13 10:31:37;;;;;;;8.52;4.30;;;;;;;;;;5047681;28;20049;-53
2022/02/13 10:34:03;;;;;;;10.00;3.80;;;;;;;;;;5046685;28;20033;-50
2022/02/13 10:36:29;;;;;;;6.60;3.28;;;;;;;;;;5046936;28;20067;-51
2022/02/13 10:38:56;;;;;;;5.90;3.28;;;;;;;;;;5045513;28;20033;-51
2022/02/13 10:41:29;;;;;;;8.88;3.40;;;;;;;;;;5046729;28;20053;-50
2022/02/13 10:43:59;;;;;;;8.02;3.55;;;;;;;;;;5046030;28;20031;-50
2022/02/13 10:46:30;;;;;;;8.00;3.60;;;;;;;;;;5045416;28;20025;-52
2022/02/13 10:48:56;;;;;;;8.50;3.38;;;;;;;;;;5049807;28;20029;-49
2022/02/13 10:51:23;;;;;;;6.78;2.90;;;;;;;;;;5046522;28;20021;-50
2022/02/13 10:53:50;;;;;;;10.48;3.10;;;;;;;;;;5046103;28;20052;-50
2022/02/13 10:56:16;;;;;;;7.60;2.85;;;;;;;;;;5046586;28;20504;-49
2022/02/13 10:58:42;;;;;;;6.80;3.17;;;;;;;;;;5045039;28;20037;-48
2022/02/13 11:01:09;;;;;;;8.45;3.53;;;;;;;;;;5044939;28;20804;-49
2022/02/13 11:03:36;;;;;;;8.02;2.92;;;;;;;;;;5036377;28;20073;-47
2022/02/13 11:06:05;;;;;;;5.97;3.30;;;;;;;;;;5047846;28;20103;-49
2022/02/13 11:08:34;;;;;;;7.25;3.42;;;;;;;;;;5035964;28;20472;-52
2022/02/13 11:11:00;;;;;;;8.23;3.67;;;;;;;;;;5043158;28;20048;-51
2022/02/13 11:13:28;;;;;;;7.53;3.83;;;;;;;;;;5040528;28;20013;-50
2022/02/13 11:15:54;;;;;;;8.20;3.47;;;;;;;;;;5044085;28;20042;-51
2022/02/13 11:18:26;;;;;;;8.20;3.92;;;;;;;;;;5047364;28;20052;-48
2022/02/13 11:20:56;;;;;;;6.20;3.15;;;;;;;;;;5047575;28;20531;-49
2022/02/13 11:23:23;;;;;;;5.20;3.42;;;;;;;;;;5047217;28;20436;-50
2022/02/13 11:25:52;;;;;;;5.50;3.38;;;;;;;;;;5047200;28;20025;-50
2022/02/13 11:28:26;;;;;;;7.15;3.67;;;;;;;;;;5047220;28;20037;-51
2022/02/13 11:30:54;;;;;;;9.50;3.58;;;;;;;;;;5047265;28;20556;-48
2022/02/13 11:33:28;;;;;;;7.80;3.85;;;;;;;;;;5047244;28;20375;-49
2022/02/13 11:35:55;;;;;;;8.05;3.65;;;;;;;;;;5047418;28;20407;-51
2022/02/13 11:38:40;;;;;;;7.60;3.85;;;;;;;;;;5046777;28;20112;-47
2022/02/13 11:41:07;;;;;;;7.45;3.65;;;;;;;;;;5047797;28;20031;-50
2022/02/13 11:43:59;;;;;;;6.90;3.83;;;;;;;;;;5030641;28;20574;-51
2022/02/13 11:46:30;;;;;;;14.30;3.95;;;;;;;;;;5037358;28;20083;-51
2022/02/13 11:49:02;;;;;;;7.47;3.63;;;;;;;;;;5038010;28;20029;-47
2022/02/13 11:51:46;;;;;;;8.00;3.47;;;;;;;;;;5046833;28;20611;-47
2022/02/13 11:54:31;;;;;;;7.47;3.70;;;;;;;;;;5046836;28;20013;-48
2022/02/13 11:56:57;;;;;;;;;;;;;;;;;;5048066;28;20021;-48
2022/02/13 11:59:43;;;;;;;6.35;3.47;;;;;;;;;;5042401;28;19954;-50
2022/02/13 12:02:14;;;;;;;7.05;3.28;;;;;;;;;;5050552;28;20044;-47
2022/02/13 12:04:59;;;;;;;6.05;3.47;;;;;;;;;;5025839;28;20033;-50
2022/02/13 12:07:25;;;;;;;7.70;3.47;;;;;;;;;;5026370;28;20123;-51
2022/02/13 12:09:51;;;;;;;7.18;3.53;;;;;;;;;;5036814;28;20037;-46
2022/02/13 12:12:24;;;;;;;5.43;3.38;;;;;;;;;;5045998;28;20163;-48
2022/02/13 12:14:50;;;;;;;8.13;3.10;;;;;;;;;;5046152;28;20081;-50
2022/02/13 12:17:24;;;;;;;9.07;3.33;;;;;;;;;;5043812;28;20021;-50
2022/02/13 12:19:59;;;;;;;6.72;3.40;;;;;;;;;;5034861;28;20132;-45
2022/02/13 12:22:25;;;;;;;9.60;3.50;;;;;;;;;;5028072;28;20029;-50
2022/02/13 12:24:52;;;;;;;9.00;4.90;;;;;;;;;;5027337;28;20059;-50
2022/02/13 12:27:21;;;;;;;6.35;3.45;;;;;;;;;;5026989;28;20033;-49
2022/02/13 12:29:56;;;;;;;7.38;3.72;;;;;;;;;;5027328;28;20033;-50
2022/02/13 12:32:27;;;;;;;6.05;3.25;;;;;;;;;;5042675;28;20031;-46
2022/02/13 12:34:53;;;;;;;5.65;3.22;;;;;;;;;;5040533;28;20041;-50
2022/02/13 12:37:19;;;;;;;4.28;2.55;;;;;;;;;;5027167;28;20382;-50
2022/02/13 12:39:49;;;;;;;5.53;2.90;;;;;;;;;;5027449;28;20499;-50
2022/02/13 12:42:31;;;;;;;7.65;3.80;;;;;;;;;;5030529;28;20512;-49
2022/02/13 12:44:59;;;;;;;7.57;3.00;;;;;;;;;;5044782;28;20090;-48
2022/02/13 12:47:29;;;;;;;8.18;3.85;;;;;;;;;;5027737;28;20029;-51
2022/02/13 12:49:55;;;;;;;8.80;3.67;;;;;;;;;;5033358;28;20045;-49
2022/02/13 12:52:24;;;;;;;7.13;2.90;;;;;;;;;;5024055;28;20393;-51
2022/02/13 12:54:50;;;;;;;8.35;3.15;;;;;;;;;;5044522;28;20408;-50
2022/02/13 12:57:17;;;;;;;8.68;3.42;;;;;;;;;;5043501;28;20075;-48
2022/02/13 12:59:43;;;;;;;8.02;3.50;;;;;;;;;;5045204;28;20161;-50
2022/02/13 13:02:25;;;;;;;5.15;2.92;;;;;;;;;;5031142;28;20090;-49
2022/02/13 13:04:51;;;;;;;6.25;2.92;;;;;;;;;;5036354;28;20486;-50
2022/02/13 13:07:17;;;;;;;7.38;2.85;;;;;;;;;;5035773;28;20620;-48
2022/02/13 13:09:44;;;;;;;8.93;3.25;;;;;;;;;;5036557;28;20623;-48
2022/02/13 13:12:14;;;;;;;8.45;3.28;;;;;;;;;;5037517;28;20123;-49
2022/02/13 13:14:40;;;;;;;8.05;3.60;;;;;;;;;;5040438;28;20032;-49
2022/02/13 13:17:10;;;;;;;7.20;3.30;;;;;;;;;;5042192;28;20178;-49
2022/02/13 13:19:39;;;;;;;6.75;3.30;;;;;;;;;;5041760;28;20037;-47
2022/02/13 13:22:17;;;;;;;5.47;3.22;;;;;;;;;;5041519;28;20584;-47
2022/02/13 13:24:47;;;;;;;7.88;3.40;;;;;;;;;;5027367;28;20037;-47
2022/02/13 13:27:39;;;;;;;9.15;3.50;;;;;;;;;;5042046;28;20033;-47
2022/02/13 13:30:15;;;;;;;6.10;3.33;;;;;;;;;;5046557;28;20049;-49
2022/02/13 13:32:41;;;;;;;8.68;3.35;;;;;;;;;;5048744;28;20028;-49
2022/02/13 13:35:08;;;;;;;11.07;3.55;;;;;;;;;;5047091;28;20060;-48
2022/02/13 13:37:42;;;;;;;6.00;3.20;;;;;;;;;;5028935;28;20029;-49
2022/02/13 13:40:08;;;;;;;5.85;3.20;;;;;;;;;;5044499;28;20616;-50
2022/02/13 13:42:39;;;;;;;5.30;3.00;;;;;;;;;;5049136;28;20028;-48
2022/02/13 13:45:06;;;;;;;8.43;3.65;;;;;;;;;;5048765;28;20500;-46
2022/02/13 13:47:32;;;;;;;6.95;2.80;;;;;;;;;;5030479;28;20034;-50
2022/02/13 13:49:58;;;;;;;6.20;2.70;;;;;;;;;;5027892;28;20041;-50
2022/02/13 13:52:25;;;;;;;10.80;3.33;;;;;;;;;;5029123;28;20037;-49
2022/02/13 13:54:51;;;;;;;7.53;3.13;;;;;;;;;;5028173;28;20402;-48
2022/02/13 13:57:18;;;;;;;6.15;3.15;;;;;;;;;;5028544;28;20493;-48
2022/02/13 13:59:45;;;;;;;5.20;3.28;;;;;;;;;;5028144;28;20207;-49
2022/02/13 14:02:21;;;;;;;6.03;2.70;;;;;;;;;;5031671;28;20033;-51
2022/02/13 14:04:47;;;;;;;4.97;2.80;;;;;;;;;;5027645;28;20116;-49
2022/02/13 14:07:13;;;;;;;7.00;3.38;;;;;;;;;;5026872;28;20052;-48
2022/02/13 14:09:39;;;;;;;5.68;3.00;;;;;;;;;;5041556;28;20036;-50
2022/02/13 14:12:07;;;;;;;6.20;2.70;;;;;;;;;;5046856;28;20059;-49
2022/02/13 14:14:34;;;;;;;6.07;2.92;;;;;;;;;;5048119;28;20024;-46
2022/02/13 14:17:00;;;;;;;4.35;2.88;;;;;;;;;;5060270;28;20496;-50
2022/02/13 14:19:26;;;;;;;7.78;2.80;;;;;;;;;;5044764;28;20048;-49
2022/02/13 14:21:52;;;;;;;5.10;2.42;;;;;;;;;;5047881;28;20032;-48
2022/02/13 14:24:18;;;;;;;5.47;2.55;;;;;;;;;;5044511;28;20562;-49
2022/02/13 14:26:44;;;;;;;6.45;3.05;;;;;;;;;;5047473;28;20382;-46
2022/02/13 14:29:11;;;;;;;4.22;2.42;;;;;;;;;;5032650;28;20076;-49
2022/02/13 14:31:37;;;;;;;10.57;2.70;;;;;;;;;;5028656;28;20020;-50
2022/02/13 14:34:03;;;;;;;5.90;2.55;;;;;;;;;;5027784;28;20025;-48
2022/02/13 14:36:29;;;;;;;7.78;2.80;;;;;;;;;;5027972;28;20022;-48
2022/02/13 14:38:55;;;;;;;5.93;2.63;;;;;;;;;;5036981;28;20037;-50